createdAt,value
2023-01-15T00:03:36.952Z,136.5
2023-01-15T00:08:38.777Z,132.3792
2023-01-15T00:13:40.563Z,130.66667
2023-01-15T00:18:42.606Z,126.24852
2023-01-15T00:23:44.073Z,119
2023-01-15T00:28:45.633Z,116.54902
2023-01-15T00:33:47.198Z,115.58774
2023-01-15T00:38:48.648Z,118.0113
2023-01-15T00:43:50.382Z,119.49858
2023-01-15T00:48:53.003Z,119.49858
2023-01-15T00:53:54.729Z,116.54902
2023-01-15T00:58:56.518Z,115.11111
2023-01-15T01:03:58.361Z,112.30601
2023-01-15T01:09:00.129Z,111.84741
2023-01-15T01:14:01.902Z,110.48649
2023-01-15T01:19:03.881Z,107.82979
2023-01-15T01:24:05.692Z,106.96296
2023-01-15T01:29:07.484Z,105.67979
2023-01-15T01:34:08.964Z,106.53298
2023-01-15T01:39:10.429Z,106.10526
2023-01-15T01:44:11.886Z,110.03774
2023-01-15T01:49:14.285Z,112.76712
2023-01-15T01:54:16.019Z,114.16575
2023-01-15T01:59:17.831Z,113.69697
2023-01-15T02:04:19.681Z,110.48649
2023-01-15T02:09:21.415Z,107.82979
2023-01-15T02:14:23.275Z,111.84741
2023-01-15T02:19:25.296Z,111.84741
2023-01-15T02:24:26.898Z,115.58774
2023-01-15T02:29:28.348Z,118.50425
2023-01-15T02:34:29.828Z,118.0113
2023-01-15T02:39:31.572Z,118.0113
2023-01-15T02:44:33.075Z,120
2023-01-15T02:49:34.968Z,119.49858
2023-01-15T02:54:36.444Z,120.5043
2023-01-15T02:59:38.245Z,121.01149
2023-01-15T03:04:39.860Z,122.03468
2023-01-15T03:09:41.608Z,122.03468
2023-01-15T03:14:43.363Z,123.06977
2023-01-15T03:19:45.243Z,123.59184
2023-01-15T03:24:46.944Z,121.52161
2023-01-15T03:29:48.625Z,121.52161
2023-01-15T03:34:50.430Z,121.01149
2023-01-15T03:39:52.249Z,121.52161
2023-01-15T03:44:53.899Z,121.01149
2023-01-15T03:49:55.644Z,120.5043
2023-01-15T03:54:57.154Z,118.50425
2023-01-15T03:59:58.931Z,119.49858
2023-01-15T04:05:00.673Z,119.49858
2023-01-15T04:10:02.553Z,120
2023-01-15T04:15:04.321Z,122.03468
2023-01-15T04:20:06.276Z,121.52161
2023-01-15T04:25:08.119Z,121.01149
2023-01-15T04:30:09.890Z,124.11696
2023-01-15T04:35:11.647Z,125.17647
2023-01-15T04:40:13.357Z,128.43114
2023-01-15T04:45:15.133Z,128.98498
2023-01-15T04:50:16.776Z,128.98498
2023-01-15T04:55:18.554Z,127.8806
2023-01-15T05:00:20.029Z,128.98498
2023-01-15T05:05:21.835Z,128.98498
2023-01-15T05:10:23.605Z,125.17647
2023-01-15T05:15:25.404Z,129.54217
2023-01-15T05:20:27.246Z,128.43114
2023-01-15T05:25:28.667Z,130.10272
2023-01-15T05:30:30.353Z,126.24852
2023-01-15T05:35:31.962Z,134.12346
2023-01-15T05:40:33.485Z,131.80488
2023-01-15T05:45:35.276Z,132.3792
2023-01-15T05:50:37.031Z,137.71069
2023-01-15T05:55:38.479Z,132.3792
2023-01-15T06:00:39.961Z,141.4359
2023-01-15T06:05:41.626Z,144.65147
2023-01-15T06:10:43.064Z,130.10272
2023-01-15T06:15:45.001Z,131.80488
2023-01-15T06:20:49.249Z,137.10345
2023-01-15T06:25:51.312Z,133.53846
2023-01-15T06:30:52.965Z,138.93671
2023-01-15T06:35:54.805Z,147.30033
2023-01-15T06:40:56.443Z,152.81356
2023-01-15T06:45:57.990Z,148.65116
2023-01-15T06:50:59.744Z,153.52381
2023-01-15T06:56:01.403Z,155.68385
2023-01-15T07:01:03.285Z,160.14035
2023-01-15T07:06:04.995Z,168
2023-01-15T07:11:06.724Z,176.45283
2023-01-15T07:16:08.611Z,154.23891
2023-01-15T07:21:10.643Z,162.43972
2023-01-15T07:26:12.398Z,156.41379
2023-01-15T07:31:14.184Z,131.80488
2023-01-15T07:36:15.998Z,125.17647
2023-01-15T07:41:17.448Z,131.80488
2023-01-15T07:46:19.201Z,138.32177
2023-01-15T07:51:21.254Z,153.52381
2023-01-15T07:56:22.991Z,171.30627
2023-01-15T08:01:24.808Z,157.88889
2023-01-15T08:06:26.644Z,155.68385
2023-01-15T08:11:28.342Z,150.02007
2023-01-15T08:16:30.080Z,152.10811
2023-01-15T08:21:31.722Z,144
2023-01-15T08:26:33.315Z,147.30033
2023-01-15T08:31:34.870Z,153.52381
2023-01-15T08:36:36.375Z,160.90141
2023-01-15T08:41:37.855Z,167.18841
2023-01-15T08:46:39.448Z,199.60166
2023-01-15T08:51:41.154Z,194.4065
2023-01-15T08:56:42.602Z,192.3871
2023-01-15T09:01:44.239Z,200.66667
2023-01-15T09:06:46.061Z,206.12766
2023-01-15T09:11:47.601Z,231.85047
2023-01-15T09:16:49.107Z,240.15385
2023-01-15T09:21:50.962Z,229.18519
2023-01-15T09:26:52.727Z,261.52577
2023-01-15T09:31:54.470Z,210.66667
2023-01-15T09:36:56.059Z,255.11111
2023-01-15T09:41:57.909Z,221.47748
2023-01-15T09:46:59.356Z,245.96078
2023-01-15T09:52:01.257Z,280.61202
2023-01-15T09:57:02.716Z,206.12766
2023-01-15T10:02:04.205Z,164.78853
2023-01-15T10:07:05.769Z,147.30033
2023-01-15T10:12:07.414Z,133.53846
2023-01-15T10:17:08.947Z,136.5
2023-01-15T10:22:11.023Z,127.33333
2023-01-15T10:27:12.501Z,148.65116
2023-01-15T10:32:14.098Z,145.96721
2023-01-15T10:37:15.593Z,159.38462
2023-01-15T10:42:17.041Z,149.33333
2023-01-15T10:47:18.607Z,172.14815
2023-01-15T10:52:20.253Z,207.24786
2023-01-15T10:57:21.680Z,333.87342
2023-01-15T11:02:23.376Z,436.8
2023-01-15T11:07:24.942Z,421.51938
2023-01-15T11:12:26.427Z,360.21622
2023-01-15T11:17:27.932Z,280.61202
2023-01-15T11:22:29.789Z,172.99628
2023-01-15T11:27:31.234Z,189.41833
2023-01-15T11:32:32.792Z,201.74059
2023-01-15T11:37:34.490Z,216.56637
2023-01-15T11:42:36.056Z,206.12766
2023-01-15T11:47:37.677Z,357.42282
2023-01-15T11:52:39.509Z,457.33333
2023-01-15T11:57:41.176Z,354.66667
2023-01-15T12:02:42.661Z,403.70149
2023-01-15T12:07:44.471Z,461.64706
2023-01-15T12:12:46.191Z,466.0339
2023-01-15T12:17:47.952Z,432.88889
2023-01-15T12:22:50.018Z,432.88889
2023-01-15T12:27:51.772Z,453.09091
2023-01-15T12:32:53.834Z,432.88889
2023-01-15T12:37:55.623Z,470.49573
2023-01-15T12:42:57.207Z,377.80282
2023-01-15T12:47:58.688Z,453.09091
2023-01-15T12:53:00.969Z,466.0339
2023-01-15T12:58:02.539Z,572.57143
2023-01-15T13:03:04.283Z,504
2023-01-15T13:08:06.175Z,572.57143
2023-01-15T13:13:07.734Z,542.05825
2023-01-15T13:18:09.308Z,536.30769
2023-01-15T13:23:11.377Z,519.70093
2023-01-15T13:28:12.931Z,704.49383
2023-01-15T13:33:14.698Z,585.66667
2023-01-15T13:38:16.487Z,553.90099
2023-01-15T13:43:18.166Z,644
2023-01-15T13:48:19.843Z,572.57143
2023-01-15T13:53:21.813Z,660.27907
2023-01-15T13:58:23.550Z,530.66667
2023-01-15T14:03:25.247Z,592.42105
2023-01-15T14:08:26.783Z,572.57143
2023-01-15T14:13:28.549Z,530.66667
2023-01-15T14:18:30.055Z,677.33333
2023-01-15T14:23:31.760Z,560
2023-01-15T14:28:33.369Z,620.92308
2023-01-15T14:33:34.837Z,525.13208
2023-01-15T14:38:36.441Z,479.65217
2023-01-15T14:43:38.218Z,686.16867
2023-01-15T14:48:39.707Z,553.90099
2023-01-15T14:53:41.511Z,579.05155
2023-01-15T14:58:43.148Z,585.66667
2023-01-15T15:03:44.846Z,704.49383
2023-01-15T15:08:46.572Z,660.27907
2023-01-15T15:13:48.459Z,811.60563
2023-01-15T15:18:49.945Z,765.33333
2023-01-15T15:23:51.898Z,660.27907
2023-01-15T15:28:53.677Z,553.90099
2023-01-15T15:33:55.278Z,572.57143
2023-01-15T15:38:56.809Z,542.05825
2023-01-15T15:43:58.415Z,489.13274
2023-01-15T15:49:00.230Z,620.92308
2023-01-15T15:54:02.370Z,606.36559
2023-01-15T15:59:04.154Z,652.04598
2023-01-15T16:04:06.051Z,723.74684
2023-01-15T16:09:07.858Z,660.27907
2023-01-15T16:14:09.532Z,686.16867
2023-01-15T16:19:11.320Z,799.55556
2023-01-15T16:24:13.309Z,652.04598
2023-01-15T16:29:15.057Z,542.05825
2023-01-15T16:34:16.907Z,414.22901
2023-01-15T16:39:18.695Z,536.30769
2023-01-15T16:44:20.348Z,530.66667
2023-01-15T16:49:22.308Z,470.49573
2023-01-15T16:54:24.471Z,368.82759
2023-01-15T16:59:26.338Z,417.84615
2023-01-15T17:04:28.390Z,284.33149
2023-01-15T17:09:30.396Z,261.52577
2023-01-15T17:14:32.033Z,344
2023-01-15T17:19:33.891Z,329
2023-01-15T17:24:35.780Z,338.87179
2023-01-15T17:29:37.792Z,298.02299
2023-01-15T17:34:39.808Z,286.22222
2023-01-15T17:39:41.677Z,315.08434
2023-01-15T17:44:43.331Z,308.49704
2023-01-15T17:49:45.236Z,278.78261
2023-01-15T17:54:47.372Z,268.21053
2023-01-15T17:59:49.126Z,250.46766
2023-01-15T18:04:50.857Z,252
2023-01-15T18:09:52.934Z,263.17098
2023-01-15T18:14:54.622Z,244.4878
2023-01-15T18:19:56.561Z,235.94313
2023-01-15T18:24:58.651Z,255.11111
2023-01-15T18:30:00.649Z,263.17098
2023-01-15T18:35:02.511Z,241.58454
2023-01-15T18:40:04.558Z,261.52577
2023-01-15T18:45:06.812Z,245.96078
2023-01-15T18:50:08.898Z,231.85047
2023-01-15T18:55:11.406Z,240.15385
2023-01-15T19:00:13.441Z,224
2023-01-15T19:05:15.698Z,219
2023-01-15T19:10:17.613Z,210.66667
2023-01-15T19:15:19.683Z,201.74059
2023-01-15T19:20:21.746Z,205.01695
2023-01-15T19:25:24.510Z,200.66667
2023-01-15T19:30:26.567Z,205.01695
2023-01-15T19:35:28.496Z,192.3871
2023-01-15T19:40:30.681Z,207.24786
2023-01-15T19:45:32.224Z,198.54545
2023-01-15T19:50:33.870Z,190.4
2023-01-15T19:55:35.916Z,180.01533
2023-01-15T20:00:37.557Z,173.85075
2023-01-15T20:05:39.044Z,172.99628
2023-01-15T20:10:40.819Z,179.1145
2023-01-15T20:15:42.300Z,176.45283
2023-01-15T20:20:43.757Z,168.81752
2023-01-15T20:25:45.521Z,172.99628
2023-01-15T20:30:47.108Z,172.14815
2023-01-15T20:35:48.700Z,172.14815
2023-01-15T20:40:50.518Z,164
2023-01-15T20:45:52.297Z,150.71141
2023-01-15T20:50:54.104Z,142.70968
2023-01-15T20:55:57.639Z,135.90031
2023-01-15T21:00:59.488Z,130.66667
2023-01-15T21:06:03.157Z,130.10272
2023-01-15T21:11:06.104Z,131.23404
2023-01-15T21:16:07.712Z,129.54217
2023-01-15T21:21:09.218Z,127.33333
2023-01-15T21:26:11.161Z,127.33333
2023-01-15T21:31:12.950Z,135.90031
2023-01-15T21:36:14.414Z,137.10345
2023-01-15T21:41:15.948Z,138.32177
2023-01-15T21:46:17.543Z,134.71207
2023-01-15T21:51:18.964Z,134.12346
2023-01-15T21:56:20.915Z,135.90031
2023-01-15T22:01:22.711Z,130.10272
2023-01-15T22:06:24.509Z,129.54217
2023-01-15T22:11:26.337Z,128.98498
2023-01-15T22:16:28.103Z,128.98498
2023-01-15T22:21:29.892Z,128.98498
2023-01-15T22:26:31.817Z,128.43114
2023-01-15T22:31:33.566Z,129.54217
2023-01-15T22:36:35.169Z,128.98498
2023-01-15T22:41:36.769Z,129.54217
2023-01-15T22:46:38.448Z,128.98498
2023-01-15T22:51:39.966Z,128.43114
2023-01-15T22:56:41.745Z,130.10272
2023-01-15T23:01:43.381Z,132.3792
2023-01-15T23:06:44.908Z,132.95706
2023-01-15T23:11:46.641Z,131.80488
2023-01-15T23:16:48.399Z,130.10272
2023-01-15T23:21:50.190Z,127.33333
2023-01-15T23:26:52.545Z,132.3792
2023-01-15T23:31:54.337Z,134.71207
2023-01-15T23:36:56.104Z,140.17834
2023-01-15T23:41:57.753Z,139.55556
2023-01-15T23:46:59.535Z,140.80511
2023-01-15T23:52:01.038Z,144
2023-01-15T23:57:02.932Z,142.07074
